Time;durP1;ratioP1;P1;durP2;ratioP2;P2;SDS_P1;SDS_P2;PMS_P1;PMS_P2;Temp;Humidity;BMP_temperature;BMP_pressure;BME280_temperature;BME280_humidity;BME280_pressure;Samples;Min_cycle;Max_cycle;Signal;HPM_P1;HPM_P2
2023/11/13 00:02:16;;;;;;;87.18;38.67;;;4.90;99.90;;;;;;6252332;23;20043;-83
2023/11/13 00:05:06;;;;;;;68.15;33.80;;;5.00;99.90;;;;;;6231118;23;20087;-81
2023/11/13 00:07:56;;;;;;;60.13;31.77;;;5.00;99.90;;;;;;6258316;23;20099;-81
2023/11/13 00:10:43;;;;;;;53.55;28.05;;;5.00;99.90;;;;;;6261549;23;20062;-82
2023/11/13 00:13:33;;;;;;;56.42;27.27;;;5.00;99.90;;;;;;6261069;23;20042;-84
2023/11/13 00:16:21;;;;;;;50.13;26.52;;;5.10;99.90;;;;;;6208436;23;20027;-83
2023/11/13 00:19:08;;;;;;;47.90;24.73;;;5.10;99.90;;;;;;6230236;23;20081;-81
2023/11/13 00:21:56;;;;;;;47.90;24.65;;;5.10;99.90;;;;;;6248461;23;20437;-82
2023/11/13 00:24:48;;;;;;;57.45;25.00;;;5.20;99.90;;;;;;6245801;23;20403;-82
2023/11/13 00:27:35;;;;;;;54.30;27.15;;;5.20;99.90;;;;;;6247679;23;20039;-82
2023/11/13 00:30:26;;;;;;;71.75;30.70;;;5.30;99.90;;;;;;6247408;23;20129;-82
2023/11/13 00:33:16;;;;;;;80.20;33.90;;;5.30;99.90;;;;;;6223050;23;20019;-82
2023/11/13 00:36:04;;;;;;;71.75;31.48;;;5.20;99.90;;;;;;6245107;23;20442;-81
2023/11/13 00:38:54;;;;;;;67.53;29.30;;;5.20;99.90;;;;;;6224438;23;20028;-82
2023/11/13 00:41:46;;;;;;;48.13;23.13;;;5.20;99.90;;;;;;6243700;23;20270;-82
2023/11/13 00:44:33;;;;;;;46.78;22.15;;;5.30;99.90;;;;;;6243674;23;20493;-82
2023/11/13 00:47:21;;;;;;;47.08;24.50;;;5.20;99.90;;;;;;6224868;23;20032;-81
2023/11/13 00:50:11;;;;;;;44.72;22.02;;;5.30;99.90;;;;;;6244539;23;20035;-82
2023/11/13 00:52:58;;;;;;;53.53;24.42;;;5.20;99.90;;;;;;6224267;23;20035;-83
2023/11/13 00:55:51;;;;;;;37.67;20.30;;;5.20;99.90;;;;;;6222034;23;20060;-82
2023/11/13 00:58:38;;;;;;;68.10;33.75;;;5.30;99.90;;;;;;6245163;23;20296;-83
2023/11/13 01:01:26;;;;;;;56.35;26.13;;;5.30;99.90;;;;;;6243996;23;20038;-82
2023/11/13 01:04:15;;;;;;;39.83;20.85;;;5.30;99.90;;;;;;6246574;23;20446;-82
2023/11/13 01:07:05;;;;;;;51.80;25.05;;;5.40;99.90;;;;;;6247450;23;20430;-81
2023/11/13 01:09:52;;;;;;;50.08;25.60;;;5.40;99.90;;;;;;6229867;23;20039;-81
2023/11/13 01:12:42;;;;;;;47.55;23.55;;;5.40;99.90;;;;;;6228206;23;20016;-80
2023/11/13 01:15:29;;;;;;;48.95;23.08;;;5.40;99.90;;;;;;6247330;23;20019;-81
2023/11/13 01:18:18;;;;;;;41.92;21.10;;;5.50;99.90;;;;;;6237785;23;20091;-82
2023/11/13 01:21:05;;;;;;;50.28;24.15;;;5.50;99.90;;;;;;6239966;23;20098;-82
2023/11/13 01:23:55;;;;;;;43.25;21.60;;;5.50;99.90;;;;;;6239653;23;20047;-82
2023/11/13 01:26:45;;;;;;;37.88;19.88;;;5.60;99.90;;;;;;6259998;23;20096;-82
2023/11/13 01:29:37;;;;;;;35.22;17.98;;;5.60;99.90;;;;;;6246391;23;20008;-82
2023/11/13 01:32:24;;;;;;;43.58;16.05;;;5.80;99.90;;;;;;6256372;23;20016;-82
2023/11/13 01:35:13;;;;;;;36.03;16.10;;;6.10;99.90;;;;;;6251907;23;20036;-82
2023/11/13 01:38:04;;;;;;;33.80;13.82;;;6.30;99.90;;;;;;6246624;23;20031;-83
2023/11/13 01:40:51;;;;;;;33.78;12.85;;;6.40;99.90;;;;;;6249055;23;20048;-82
2023/11/13 01:43:39;;;;;;;35.33;13.65;;;6.80;99.90;;;;;;6243983;23;20058;-82
2023/11/13 01:46:32;;;;;;;25.63;11.10;;;6.90;99.90;;;;;;6225770;23;20492;-82
2023/11/13 01:49:20;;;;;;;33.78;13.30;;;7.00;99.90;;;;;;6243879;23;20051;-82
2023/11/13 01:52:09;;;;;;;28.48;12.00;;;7.10;99.90;;;;;;6221578;23;20097;-81
2023/11/13 01:55:00;;;;;;;22.80;10.00;;;7.10;99.90;;;;;;6224514;23;20028;-79
2023/11/13 01:57:47;;;;;;;28.75;9.13;;;7.10;99.90;;;;;;6242897;23;20016;-82
2023/11/13 02:00:35;;;;;;;28.67;9.68;;;7.20;99.90;;;;;;6244173;23;20052;-83
2023/11/13 02:03:22;;;;;;;21.38;9.98;;;7.30;99.90;;;;;;6222939;23;20512;-82
2023/11/13 02:06:15;;;;;;;29.38;10.05;;;7.30;99.90;;;;;;6244670;23;20032;-82
2023/11/13 02:09:05;;;;;;;27.90;9.88;;;7.40;99.90;;;;;;6244529;23;20318;-82
2023/11/13 02:11:52;;;;;;;31.73;12.98;;;7.40;99.90;;;;;;6242849;23;20035;-83
2023/11/13 02:14:43;;;;;;;29.17;11.63;;;7.40;99.90;;;;;;6242881;23;20099;-83
2023/11/13 02:17:31;;;;;;;25.02;13.13;;;7.40;99.90;;;;;;6244142;23;20028;-83
2023/11/13 02:20:18;;;;;;;25.83;11.23;;;7.40;99.90;;;;;;6242000;23;20415;-83
2023/11/13 02:23:06;;;;;;;22.20;9.93;;;7.50;99.90;;;;;;6241952;23;20422;-83
2023/11/13 02:25:57;;;;;;;21.85;9.63;;;7.60;99.90;;;;;;6223542;23;20034;-83
2023/11/13 02:28:45;;;;;;;17.95;8.85;;;7.70;99.90;;;;;;6222496;23;20026;-83
2023/11/13 02:31:32;;;;;;;20.92;9.25;;;7.70;99.90;;;;;;6222171;23;20091;-83
2023/11/13 02:34:23;;;;;;;22.73;10.38;;;7.70;99.90;;;;;;6243773;23;20441;-83
2023/11/13 02:37:12;;;;;;;18.42;8.20;;;7.70;99.90;;;;;;6243093;23;20024;-81
2023/11/13 02:40:00;;;;;;;22.17;9.70;;;7.90;99.90;;;;;;6245591;23;20027;-82
2023/11/13 02:42:54;;;;;;;15.65;9.07;;;7.80;99.90;;;;;;6222902;23;20039;-81
2023/11/13 02:45:42;;;;;;;18.15;9.15;;;7.90;99.90;;;;;;6221492;23;20052;-82
2023/11/13 02:48:32;;;;;;;21.70;7.80;;;8.00;99.90;;;;;;6242955;23;20103;-81
2023/11/13 02:51:21;;;;;;;15.93;7.28;;;8.10;99.90;;;;;;6247741;22;20399;-82
2023/11/13 02:54:13;;;;;;;18.05;7.97;;;8.10;99.90;;;;;;6246043;23;20024;-82
2023/11/13 02:57:00;;;;;;;21.33;8.20;;;8.20;99.90;;;;;;6244945;23;20030;-82
2023/11/13 02:59:50;;;;;;;15.75;7.63;;;8.20;99.90;;;;;;6245125;23;20024;-85
2023/11/13 03:02:38;;;;;;;15.25;7.80;;;8.20;99.90;;;;;;6229317;23;20028;-82
2023/11/13 03:05:30;;;;;;;16.20;8.75;;;8.30;99.90;;;;;;6227063;23;20060;-82
2023/11/13 03:08:18;;;;;;;;;;;8.30;99.90;;;;;;6243153;23;20399;-83
2023/11/13 03:11:13;;;;;;;15.27;8.60;;;8.30;99.90;;;;;;6223860;23;19927;-82
2023/11/13 03:14:00;;;;;;;16.52;7.85;;;8.40;99.90;;;;;;6221292;23;20048;-82
2023/11/13 03:16:50;;;;;;;20.35;8.38;;;8.50;99.90;;;;;;6242124;23;20050;-83
2023/11/13 03:19:43;;;;;;;17.48;7.45;;;8.50;99.90;;;;;;6220172;23;20020;-83
2023/11/13 03:22:30;;;;;;;18.90;7.55;;;8.60;99.90;;;;;;6242401;23;20032;-82
2023/11/13 03:25:23;;;;;;;17.45;7.70;;;8.60;99.90;;;;;;6222634;23;20503;-83
2023/11/13 03:28:10;;;;;;;18.48;7.30;;;8.60;99.90;;;;;;6222105;23;20047;-83
2023/11/13 03:31:02;;;;;;;16.52;8.00;;;8.60;99.90;;;;;;6223326;23;20462;-82
2023/11/13 03:33:51;;;;;;;14.77;7.78;;;8.60;99.90;;;;;;6222320;23;20020;-83
2023/11/13 03:36:38;;;;;;;15.68;7.53;;;8.70;99.90;;;;;;6243913;23;20020;-82
2023/11/13 03:39:27;;;;;;;16.70;8.13;;;8.70;99.90;;;;;;6222182;23;20291;-82
2023/11/13 03:42:15;;;;;;;17.58;8.20;;;8.80;99.90;;;;;;6241909;23;20050;-83
2023/11/13 03:45:04;;;;;;;15.52;7.00;;;8.80;99.90;;;;;;6242903;23;20028;-83
2023/11/13 03:47:52;;;;;;;15.77;6.85;;;8.80;99.90;;;;;;6243093;23;20038;-82
2023/11/13 03:50:39;;;;;;;17.60;6.25;;;8.90;99.90;;;;;;6242505;23;20035;-83
2023/11/13 03:53:27;;;;;;;16.35;6.20;;;8.90;99.90;;;;;;6220874;23;20024;-83
2023/11/13 03:56:14;;;;;;;16.23;5.68;;;8.90;99.90;;;;;;6244043;23;20386;-82
2023/11/13 03:59:04;;;;;;;14.15;5.28;;;9.00;99.90;;;;;;6241884;23;20036;-82
2023/11/13 04:01:51;;;;;;;9.55;4.22;;;9.00;99.90;;;;;;6242247;23;20102;-83
2023/11/13 04:04:40;;;;;;;8.07;4.00;;;9.10;99.90;;;;;;6222131;23;20035;-82
2023/11/13 04:07:30;;;;;;;8.88;4.03;;;9.10;99.90;;;;;;6242988;23;20020;-82
2023/11/13 04:10:20;;;;;;;9.75;3.00;;;9.10;99.90;;;;;;6242285;23;20030;-81
2023/11/13 04:13:08;;;;;;;12.90;3.25;;;9.20;99.90;;;;;;6243726;23;20434;-81
2023/11/13 04:16:00;;;;;;;7.53;2.95;;;9.20;99.90;;;;;;6219102;23;20474;-83
2023/11/13 04:18:48;;;;;;;10.63;3.50;;;9.20;99.90;;;;;;6221804;23;20058;-83
2023/11/13 04:21:39;;;;;;;6.97;3.63;;;9.10;99.90;;;;;;6243189;23;20024;-83
2023/11/13 04:24:26;;;;;;;12.38;3.15;;;9.10;99.90;;;;;;6220828;23;20039;-82
2023/11/13 04:27:16;;;;;;;10.85;3.08;;;9.10;99.90;;;;;;6220440;23;20028;-81
2023/11/13 04:30:04;;;;;;;12.65;3.53;;;9.10;99.90;;;;;;6244300;23;20138;-83
2023/11/13 04:32:54;;;;;;;16.90;4.47;;;9.10;99.90;;;;;;6223024;23;20095;-83
2023/11/13 04:35:46;;;;;;;22.60;4.38;;;9.20;99.90;;;;;;6242530;23;20028;-81
2023/11/13 04:38:40;;;;;;;21.98;3.95;;;9.20;99.90;;;;;;6224679;23;20028;-82
2023/11/13 04:41:28;;;;;;;17.92;4.40;;;9.20;99.90;;;;;;6243760;23;20024;-82
2023/11/13 04:44:17;;;;;;;19.58;4.40;;;9.20;99.90;;;;;;6223080;23;20050;-83
2023/11/13 04:47:09;;;;;;;22.88;4.85;;;9.20;99.90;;;;;;6221406;23;20027;-83
2023/11/13 04:49:59;;;;;;;25.80;3.75;;;9.20;99.90;;;;;;6223866;23;20090;-81
2023/11/13 04:52:49;;;;;;;24.45;4.72;;;9.10;99.90;;;;;;6243234;23;20031;-82
2023/11/13 04:55:39;;;;;;;19.75;4.32;;;9.20;99.90;;;;;;6222274;23;20103;-82
2023/11/13 04:58:26;;;;;;;26.17;4.97;;;9.20;99.90;;;;;;6245151;23;20034;-82
2023/11/13 05:01:17;;;;;;;21.08;4.85;;;9.20;99.90;;;;;;6246813;23;20055;-81
2023/11/13 05:04:08;;;;;;;27.90;4.60;;;9.20;99.90;;;;;;6248814;23;20028;-81
2023/11/13 05:06:56;;;;;;;17.57;4.00;;;9.30;99.90;;;;;;6243175;23;20483;-81
2023/11/13 05:09:53;;;;;;;20.17;4.47;;;9.30;99.90;;;;;;6245348;23;20040;-81
2023/11/13 05:12:43;;;;;;;19.65;5.05;;;9.30;99.90;;;;;;6243057;23;20135;-81
2023/11/13 05:15:30;;;;;;;23.10;4.57;;;9.30;99.90;;;;;;6244984;23;20455;-81
2023/11/13 05:18:19;;;;;;;21.75;4.50;;;9.40;99.90;;;;;;6243548;23;20028;-82
2023/11/13 05:21:06;;;;;;;27.83;5.38;;;9.40;99.90;;;;;;6221815;23;20024;-82
2023/11/13 05:23:53;;;;;;;15.13;4.38;;;9.40;99.90;;;;;;6220989;23;20355;-83
2023/11/13 05:26:43;;;;;;;25.15;5.15;;;9.40;99.90;;;;;;6243688;23;20315;-82
2023/11/13 05:29:31;;;;;;;21.33;4.03;;;9.40;99.90;;;;;;6244179;23;20027;-82
2023/11/13 05:32:18;;;;;;;17.48;3.88;;;9.30;99.90;;;;;;6241664;23;20028;-82
2023/11/13 05:35:06;;;;;;;22.48;4.18;;;9.20;99.90;;;;;;6243814;23;20020;-82
2023/11/13 05:37:54;;;;;;;21.63;4.20;;;9.40;99.90;;;;;;6223219;23;20102;-81
2023/11/13 05:40:43;;;;;;;19.67;4.35;;;9.40;99.90;;;;;;6247073;23;20100;-79
2023/11/13 05:43:30;;;;;;;24.52;4.05;;;9.40;99.90;;;;;;6230882;23;20086;-79
2023/11/13 05:46:21;;;;;;;24.45;4.60;;;9.40;99.90;;;;;;6253844;23;20122;-79
2023/11/13 05:49:08;;;;;;;23.75;4.47;;;9.40;99.90;;;;;;6203232;23;20103;-79
2023/11/13 05:51:58;;;;;;;18.42;4.28;;;9.40;99.90;;;;;;6244128;23;20051;-79
2023/11/13 05:54:45;;;;;;;20.60;4.70;;;9.50;99.90;;;;;;6224116;23;20016;-79
2023/11/13 05:57:37;;;;;;;21.25;4.35;;;9.50;99.90;;;;;;6244862;23;20031;-81
2023/11/13 06:00:25;;;;;;;23.77;5.35;;;9.50;99.90;;;;;;6221750;23;20031;-79
2023/11/13 06:03:14;;;;;;;22.60;3.90;;;9.60;99.90;;;;;;6242100;23;20038;-81
2023/11/13 06:06:06;;;;;;;23.15;4.82;;;9.60;99.90;;;;;;6223036;23;20024;-80
2023/11/13 06:08:56;;;;;;;16.30;3.72;;;9.60;99.90;;;;;;6222258;23;20059;-82
2023/11/13 06:11:45;;;;;;;24.67;4.03;;;9.60;99.90;;;;;;6243764;23;20628;-81
2023/11/13 06:14:33;;;;;;;15.82;4.13;;;9.60;99.90;;;;;;6244162;23;20100;-79
2023/11/13 06:17:23;;;;;;;21.27;4.45;;;9.60;99.90;;;;;;6223034;23;20150;-82
2023/11/13 06:20:19;;;;;;;21.13;4.65;;;9.50;99.90;;;;;;6246837;23;20046;-82
2023/11/13 06:23:09;;;;;;;33.03;5.07;;;9.50;99.90;;;;;;6205072;23;20087;-82
2023/11/13 06:25:58;;;;;;;20.60;4.68;;;9.60;99.90;;;;;;6252176;23;20060;-84
2023/11/13 06:28:46;;;;;;;24.75;5.15;;;9.50;99.90;;;;;;6254391;23;20028;-82
2023/11/13 06:31:34;;;;;;;21.42;4.30;;;9.60;99.90;;;;;;6264490;23;20028;-83
2023/11/13 06:34:24;;;;;;;18.73;4.68;;;9.60;99.90;;;;;;6234707;23;20024;-80
2023/11/13 06:37:11;;;;;;;22.95;4.55;;;9.50;99.90;;;;;;6261897;23;20024;-82
2023/11/13 06:40:01;;;;;;;25.13;5.47;;;9.50;99.90;;;;;;6265243;23;20024;-84
2023/11/13 06:42:53;;;;;;;26.02;4.82;;;9.50;99.90;;;;;;6248518;23;20116;-83
2023/11/13 06:45:44;;;;;;;22.92;4.35;;;9.40;99.90;;;;;;6227607;23;20023;-83
2023/11/13 06:48:34;;;;;;;27.10;5.60;;;9.40;99.90;;;;;;6223319;23;20122;-81
2023/11/13 06:51:24;;;;;;;23.58;4.97;;;9.40;99.90;;;;;;6246089;23;20031;-82
2023/11/13 06:54:11;;;;;;;21.02;4.30;;;9.30;99.90;;;;;;6223535;23;20024;-83
2023/11/13 06:56:59;;;;;;;24.10;5.38;;;9.40;99.90;;;;;;6222573;23;20150;-82
2023/11/13 06:59:50;;;;;;;19.08;4.25;;;9.40;99.90;;;;;;6242475;23;20020;-82
2023/11/13 07:02:43;;;;;;;18.48;3.60;;;9.30;99.90;;;;;;6241602;23;20024;-82
2023/11/13 07:11:14;;;;;;;18.98;4.82;;;9.30;99.90;;;;;;6244459;22;20024;-81
2023/11/13 07:14:02;;;;;;;13.85;3.55;;;9.20;99.90;;;;;;6222395;23;20028;-83
2023/11/13 07:16:50;;;;;;;15.05;4.50;;;9.20;99.90;;;;;;6218060;23;20047;-84
2023/11/13 07:19:42;;;;;;;15.50;3.67;;;9.20;99.90;;;;;;6220036;23;20028;-83
2023/11/13 07:22:32;;;;;;;12.45;3.58;;;9.20;99.90;;;;;;6222109;23;20032;-82
2023/11/13 07:25:22;;;;;;;11.27;3.22;;;9.20;99.90;;;;;;6244220;22;20109;-83
2023/11/13 07:28:12;;;;;;;13.75;3.83;;;9.10;99.90;;;;;;6242029;23;20039;-82
2023/11/13 07:31:00;;;;;;;11.27;3.70;;;9.10;99.90;;;;;;6242531;23;20046;-80
2023/11/13 07:33:49;;;;;;;16.73;3.75;;;9.00;99.90;;;;;;6242638;23;20024;-84
2023/11/13 07:36:36;;;;;;;12.88;3.10;;;8.90;99.90;;;;;;6220904;23;20407;-84
2023/11/13 07:39:27;;;;;;;12.95;3.05;;;8.90;99.90;;;;;;6243515;23;20035;-83
2023/11/13 07:42:15;;;;;;;11.48;3.60;;;8.80;99.90;;;;;;6244641;23;20020;-82
2023/11/13 07:45:09;;;;;;;19.58;3.95;;;8.70;99.90;;;;;;6242877;23;20051;-81
2023/11/13 07:48:04;;;;;;;12.35;3.78;;;8.70;99.90;;;;;;6241677;23;20031;-83
2023/11/13 07:50:54;;;;;;;14.80;4.13;;;8.70;99.90;;;;;;6244931;23;20038;-83
2023/11/13 07:53:47;;;;;;;18.88;4.07;;;8.60;99.90;;;;;;6242803;23;20578;-83
2023/11/13 07:56:35;;;;;;;8.77;3.22;;;8.60;99.90;;;;;;6221005;23;20095;-83
2023/11/13 07:59:26;;;;;;;18.20;3.85;;;8.50;99.90;;;;;;6241284;23;20541;-84
2023/11/13 08:02:14;;;;;;;17.15;3.83;;;8.50;99.90;;;;;;6222003;23;20048;-83
2023/11/13 08:05:04;;;;;;;16.10;4.38;;;8.50;99.90;;;;;;6222732;23;20437;-83
2023/11/13 08:07:52;;;;;;;14.35;5.22;;;8.50;99.90;;;;;;6245084;23;20283;-84
2023/11/13 08:10:46;;;;;;;19.88;4.70;;;8.40;99.90;;;;;;6222315;23;20078;-83
2023/11/13 08:13:38;;;;;;;17.50;3.75;;;8.40;99.90;;;;;;6243259;23;20020;-84
2023/11/13 08:16:27;;;;;;;12.82;3.55;;;8.40;99.90;;;;;;6243053;23;20035;-82
2023/11/13 08:19:14;;;;;;;13.00;4.03;;;8.40;99.90;;;;;;6224013;23;20027;-84
2023/11/13 08:22:04;;;;;;;15.00;4.25;;;8.40;99.90;;;;;;6217082;23;20028;-82
2023/11/13 08:24:52;;;;;;;20.92;4.95;;;8.40;99.90;;;;;;6239496;23;20110;-83
2023/11/13 08:27:44;;;;;;;16.85;5.03;;;8.40;99.90;;;;;;6261686;22;20113;-84
2023/11/13 08:30:36;;;;;;;24.85;6.47;;;8.40;99.90;;;;;;6246983;23;20024;-81
2023/11/13 08:33:25;;;;;;;18.63;5.38;;;8.40;99.90;;;;;;6260821;23;20020;-82
2023/11/13 08:36:15;;;;;;;21.92;5.10;;;8.40;99.90;;;;;;6245163;23;20024;-82
2023/11/13 08:39:03;;;;;;;17.85;4.57;;;8.40;99.90;;;;;;6233352;23;20020;-83
2023/11/13 08:41:55;;;;;;;19.52;4.40;;;8.40;99.90;;;;;;6248661;23;20020;-82
2023/11/13 08:44:44;;;;;;;19.38;5.30;;;8.50;99.90;;;;;;6246237;23;20024;-82
2023/11/13 08:47:33;;;;;;;15.65;4.68;;;8.50;99.90;;;;;;6246154;23;20027;-83
2023/11/13 08:50:26;;;;;;;15.45;4.38;;;8.60;99.90;;;;;;6223681;23;20032;-83
2023/11/13 08:53:19;;;;;;;18.15;4.78;;;8.70;99.90;;;;;;6242988;23;20084;-82
2023/11/13 08:56:15;;;;;;;10.27;4.75;;;8.70;99.90;;;;;;6244310;23;20127;-83
2023/11/13 08:59:12;;;;;;;11.35;3.83;;;8.80;99.90;;;;;;6223348;23;20102;-83
2023/11/13 09:02:05;;;;;;;14.48;3.88;;;8.90;99.90;;;;;;6223558;23;20341;-82
2023/11/13 09:04:53;;;;;;;15.10;3.97;;;9.00;99.90;;;;;;6222057;23;20302;-83
2023/11/13 09:07:43;;;;;;;11.38;3.80;;;9.10;99.90;;;;;;6243113;23;20117;-84
2023/11/13 09:10:44;;;;;;;15.60;3.72;;;9.20;99.90;;;;;;6222062;23;20035;-83
2023/11/13 09:13:35;;;;;;;10.85;3.70;;;9.20;99.90;;;;;;6244040;23;20077;-82
2023/11/13 09:16:23;;;;;;;10.32;3.65;;;9.20;99.90;;;;;;6241877;23;20024;-81
2023/11/13 09:19:16;;;;;;;13.23;3.80;;;9.30;99.90;;;;;;6220287;23;20028;-81
2023/11/13 09:25:34;;;;;;;13.40;4.97;;;9.50;99.90;;;;;;6216926;23;20047;-83
2023/11/13 09:28:25;;;;;;;11.13;4.15;;;9.60;99.90;;;;;;6224491;23;20024;-83
2023/11/13 09:31:14;;;;;;;9.23;3.20;;;9.70;99.90;;;;;;6222463;23;20024;-83
2023/11/13 09:34:07;;;;;;;7.75;2.85;;;9.80;99.90;;;;;;6221209;23;20050;-83
2023/11/13 09:36:57;;;;;;;11.50;3.50;;;9.90;99.90;;;;;;6241540;23;20024;-84
2023/11/13 09:39:46;;;;;;;9.80;3.17;;;9.90;99.90;;;;;;6243352;23;20040;-82
2023/11/13 09:42:35;;;;;;;8.93;3.70;;;10.00;99.90;;;;;;6245109;23;20050;-83
2023/11/13 09:45:27;;;;;;;10.95;3.70;;;10.00;99.90;;;;;;6243422;23;20032;-83
2023/11/13 09:48:19;;;;;;;8.32;3.63;;;10.10;99.90;;;;;;6245333;23;20307;-83
2023/11/13 09:51:08;;;;;;;15.10;3.58;;;10.10;99.90;;;;;;6222116;23;20330;-82
2023/11/13 09:54:13;;;;;;;11.07;3.17;;;10.20;99.90;;;;;;6224174;23;20020;-82
2023/11/13 09:57:03;;;;;;;10.18;3.75;;;10.30;99.90;;;;;;6244234;23;20020;-84
2023/11/13 09:59:51;;;;;;;13.52;3.95;;;10.40;99.90;;;;;;6220757;23;20086;-84
2023/11/13 10:02:43;;;;;;;9.98;3.63;;;10.40;99.90;;;;;;6220791;23;20020;-84
2023/11/13 10:06:05;;;;;;;9.23;3.45;;;10.50;99.90;;;;;;6244853;23;20028;-85
2023/11/13 10:09:22;;;;;;;13.38;4.10;;;10.60;99.90;;;;;;6234468;23;20028;-82
2023/11/13 10:12:14;;;;;;;16.58;3.95;;;10.70;99.90;;;;;;6252319;23;20406;-82
2023/11/13 10:15:08;;;;;;;12.25;4.28;;;10.80;99.90;;;;;;6242971;23;20031;-82
2023/11/13 10:18:14;;;;;;;13.25;4.35;;;10.90;99.90;;;;;;6260558;23;20079;-83
2023/11/13 10:21:04;;;;;;;10.45;4.18;;;10.90;99.90;;;;;;6223686;23;20509;-83
2023/11/13 10:23:57;;;;;;;12.18;3.78;;;11.00;99.90;;;;;;6229928;23;20035;-81
2023/11/13 10:27:13;;;;;;;11.82;4.68;;;11.10;99.90;;;;;;6247405;23;20411;-84
2023/11/13 10:30:05;;;;;;;16.20;3.95;;;11.10;99.90;;;;;;6244989;23;20342;-84
2023/11/13 10:32:54;;;;;;;11.93;4.15;;;11.20;99.90;;;;;;6224318;23;20093;-81
2023/11/13 10:35:48;;;;;;;15.05;4.13;;;11.30;99.90;;;;;;6222919;23;20464;-81
2023/11/13 10:38:52;;;;;;;11.53;4.37;;;11.30;99.90;;;;;;6221573;23;20031;-82
2023/11/13 10:41:45;;;;;;;13.05;4.10;;;11.30;99.90;;;;;;6242343;23;20263;-81
2023/11/13 10:44:37;;;;;;;15.25;4.00;;;11.40;99.90;;;;;;6221605;23;20107;-82
2023/11/13 10:47:43;;;;;;;12.20;3.95;;;11.50;99.90;;;;;;6244236;23;20143;-83
2023/11/13 10:50:31;;;;;;;9.80;3.92;;;11.50;99.90;;;;;;6222739;23;20080;-84
2023/11/13 10:53:19;;;;;;;17.23;4.90;;;11.60;99.90;;;;;;6220194;23;20085;-81
2023/11/13 10:56:08;;;;;;;16.08;4.22;;;11.60;99.90;;;;;;6243184;23;20024;-84
2023/11/13 10:59:01;;;;;;;22.70;3.88;;;11.60;99.90;;;;;;6202283;23;20020;-82
2023/11/13 11:01:51;;;;;;;12.00;3.50;;;11.60;99.90;;;;;;6223295;23;20028;-82
2023/11/13 11:04:42;;;;;;;15.45;4.18;;;11.60;99.90;;;;;;6223586;23;20062;-82
2023/11/13 11:07:34;;;;;;;15.43;4.13;;;11.60;99.90;;;;;;6247776;23;20028;-82
2023/11/13 11:10:25;;;;;;;14.63;4.30;;;11.60;99.90;;;;;;6204158;23;20276;-81
2023/11/13 11:13:16;;;;;;;11.82;4.10;;;11.50;99.90;;;;;;6247667;22;20109;-83
2023/11/13 11:16:27;;;;;;;14.52;4.80;;;11.50;99.90;;;;;;6227117;23;20044;-80
2023/11/13 11:19:18;;;;;;;13.48;4.68;;;11.60;99.90;;;;;;6245343;22;20036;-80
2023/11/13 11:22:30;;;;;;;10.38;4.70;;;11.50;99.90;;;;;;6241685;23;20035;-82
2023/11/13 11:25:22;;;;;;;;;;;11.60;99.90;;;;;;6220560;23;20145;-83
2023/11/13 11:28:40;;;;;;;13.70;5.47;;;11.60;99.90;;;;;;6222610;23;19916;-82
2023/11/13 11:31:38;;;;;;;10.07;4.32;;;11.70;99.90;;;;;;6242955;23;20117;-83
2023/11/13 11:34:30;;;;;;;20.48;5.07;;;11.70;99.90;;;;;;6242674;23;20024;-84
2023/11/13 11:37:20;;;;;;;13.20;4.65;;;11.70;99.90;;;;;;6221153;23;20035;-83
2023/11/13 11:40:12;;;;;;;12.65;4.55;;;11.70;99.90;;;;;;6222513;23;20020;-82
2023/11/13 11:43:02;;;;;;;15.35;4.95;;;11.70;99.90;;;;;;6223245;23;20028;-83
2023/11/13 11:45:52;;;;;;;22.10;4.82;;;11.70;99.90;;;;;;6247414;23;20366;-86
2023/11/13 11:48:41;;;;;;;17.15;4.90;;;11.70;99.90;;;;;;6247430;23;20065;-84
2023/11/13 11:51:29;;;;;;;15.65;4.97;;;11.70;99.90;;;;;;6222857;23;20049;-85
2023/11/13 11:54:22;;;;;;;13.82;5.30;;;11.80;99.90;;;;;;6227335;23;20024;-83
2023/11/13 11:57:11;;;;;;;17.52;5.30;;;11.70;99.90;;;;;;6245728;23;20020;-83
2023/11/13 12:00:04;;;;;;;20.67;5.65;;;11.70;99.90;;;;;;6247271;23;20071;-84
2023/11/13 12:02:53;;;;;;;17.33;5.50;;;11.70;99.90;;;;;;6202069;23;20425;-81
2023/11/13 12:05:41;;;;;;;14.18;4.72;;;11.80;99.90;;;;;;6223284;23;20334;-82
2023/11/13 12:08:32;;;;;;;25.00;5.10;;;11.80;99.90;;;;;;6227228;23;20089;-82
2023/11/13 12:11:20;;;;;;;15.80;5.05;;;11.80;99.90;;;;;;6244638;23;20078;-83
2023/11/13 12:14:08;;;;;;;14.77;4.82;;;11.90;99.90;;;;;;6247204;23;20090;-81
2023/11/13 12:17:00;;;;;;;14.15;4.95;;;11.90;99.90;;;;;;6246135;23;20020;-84
2023/11/13 12:19:51;;;;;;;10.75;4.40;;;12.00;99.90;;;;;;6223375;23;20403;-83
2023/11/13 12:22:54;;;;;;;11.60;3.88;;;12.00;99.90;;;;;;6243528;23;20020;-83
2023/11/13 12:25:43;;;;;;;11.88;4.28;;;12.00;99.90;;;;;;6224616;23;20038;-83
2023/11/13 12:28:31;;;;;;;12.70;3.90;;;12.00;99.90;;;;;;6258776;23;20088;-82
2023/11/13 12:31:20;;;;;;;11.20;3.75;;;12.10;99.90;;;;;;6257054;23;20035;-83
2023/11/13 12:34:11;;;;;;;10.80;3.40;;;12.20;99.90;;;;;;6239077;23;20026;-83
2023/11/13 12:37:00;;;;;;;9.25;3.40;;;12.10;99.90;;;;;;6258867;23;20019;-83
2023/11/13 12:39:53;;;;;;;11.35;4.07;;;12.20;99.90;;;;;;6265247;22;20031;-80
2023/11/13 12:42:44;;;;;;;9.02;3.45;;;12.20;99.90;;;;;;6256087;23;20028;-82
2023/11/13 12:45:31;;;;;;;10.63;3.78;;;12.20;99.90;;;;;;6225065;23;20030;-83
2023/11/13 12:48:24;;;;;;;11.30;3.63;;;12.20;99.90;;;;;;6246574;23;20115;-83
2023/11/13 12:51:14;;;;;;;7.70;2.95;;;12.20;99.90;;;;;;6244273;23;20027;-80
2023/11/13 12:54:06;;;;;;;9.95;3.88;;;12.20;99.90;;;;;;6245314;23;20462;-83
2023/11/13 12:56:56;;;;;;;7.93;3.33;;;12.20;99.90;;;;;;6227398;23;20020;-84
2023/11/13 12:59:56;;;;;;;;;;;12.20;99.90;;;;;;6227221;23;20035;-85
2023/11/13 13:02:49;;;;;;;8.27;3.30;;;12.30;99.90;;;;;;6223627;23;19922;-84
2023/11/13 13:05:42;;;;;;;7.40;2.80;;;12.30;99.90;;;;;;6221809;23;20035;-81
2023/11/13 13:08:31;;;;;;;6.60;2.33;;;12.40;99.90;;;;;;6223594;23;20354;-84
2023/11/13 13:11:25;;;;;;;7.85;2.65;;;12.30;99.90;;;;;;6245653;23;20478;-83
2023/11/13 13:14:17;;;;;;;7.95;3.08;;;12.40;99.90;;;;;;6223537;23;20394;-82
2023/11/13 13:17:07;;;;;;;;;;;12.30;99.90;;;;;;6226138;23;20025;-84
2023/11/13 13:19:56;;;;;;;6.60;2.42;;;12.40;99.90;;;;;;6247777;23;19940;-84
2023/11/13 13:22:51;;;;;;;7.28;2.78;;;12.40;99.90;;;;;;6249601;23;20030;-83
2023/11/13 13:25:39;;;;;;;5.53;2.58;;;12.40;99.90;;;;;;6262719;23;20040;-81
2023/11/13 13:28:27;;;;;;;6.72;2.08;;;12.40;99.90;;;;;;6231715;23;20028;-82
2023/11/13 13:31:15;;;;;;;7.65;1.88;;;12.50;99.90;;;;;;6222874;23;20027;-81
2023/11/13 13:34:08;;;;;;;5.93;2.25;;;12.50;99.90;;;;;;6220595;23;20575;-82
2023/11/13 13:36:58;;;;;;;5.07;1.90;;;12.50;99.90;;;;;;6221398;23;20040;-80
2023/11/13 13:39:50;;;;;;;6.32;1.70;;;12.50;99.90;;;;;;6250124;23;20030;-80
2023/11/13 13:42:40;;;;;;;3.77;1.40;;;12.50;99.90;;;;;;6253912;23;20406;-83
2023/11/13 13:45:28;;;;;;;3.90;1.65;;;12.50;99.90;;;;;;6257648;23;20040;-82
2023/11/13 13:48:16;;;;;;;4.43;1.80;;;12.50;99.90;;;;;;6248294;23;20090;-83
2023/11/13 13:51:05;;;;;;;2.90;1.35;;;12.60;99.90;;;;;;6223869;23;20032;-79
2023/11/13 13:53:54;;;;;;;3.42;1.92;;;12.60;99.90;;;;;;6225989;23;20330;-82
2023/11/13 13:56:47;;;;;;;2.05;1.50;;;12.60;99.90;;;;;;6221631;23;20044;-83
2023/11/13 13:59:36;;;;;;;2.58;1.30;;;12.60;99.90;;;;;;6244793;23;20024;-81
2023/11/13 14:02:32;;;;;;;3.22;1.98;;;12.60;99.90;;;;;;6243892;23;20024;-84
2023/11/13 14:05:39;;;;;;;3.90;2.00;;;12.60;99.90;;;;;;6206193;23;20485;-83
2023/11/13 14:08:31;;;;;;;4.60;1.95;;;12.50;99.90;;;;;;6243396;23;20024;-84
2023/11/13 14:11:24;;;;;;;2.78;1.50;;;12.60;99.90;;;;;;6220865;23;20103;-82
2023/11/13 14:14:36;;;;;;;4.30;2.05;;;12.50;99.90;;;;;;6242192;23;20040;-83
2023/11/13 14:17:29;;;;;;;2.60;1.48;;;12.50;99.90;;;;;;6242228;23;20051;-84
2023/11/13 14:20:27;;;;;;;3.70;1.85;;;12.50;99.90;;;;;;6223684;23;20161;-82
2023/11/13 14:23:15;;;;;;;3.85;1.83;;;12.60;99.90;;;;;;6241807;23;20408;-83
2023/11/13 14:26:09;;;;;;;2.85;1.55;;;12.60;99.90;;;;;;6221962;23;20054;-81
2023/11/13 14:28:59;;;;;;;3.75;1.40;;;12.60;99.90;;;;;;6221804;23;20095;-82
2023/11/13 14:31:48;;;;;;;5.85;2.05;;;12.70;99.90;;;;;;6244111;23;20354;-80
2023/11/13 14:34:37;;;;;;;5.25;1.73;;;12.70;99.90;;;;;;6244163;23;20028;-82
2023/11/13 14:37:24;;;;;;;4.85;1.80;;;12.70;99.90;;;;;;6222196;23;20028;-83
2023/11/13 14:40:15;;;;;;;3.97;1.50;;;12.80;99.90;;;;;;6244590;23;20024;-81
2023/11/13 14:43:05;;;;;;;2.97;1.63;;;12.80;99.90;;;;;;6245518;23;20082;-80
2023/11/13 14:45:56;;;;;;;4.68;1.73;;;12.80;99.90;;;;;;6222013;23;20437;-78
2023/11/13 14:48:43;;;;;;;4.45;1.65;;;12.90;99.90;;;;;;6225070;23;20034;-82
2023/11/13 14:51:32;;;;;;;4.30;1.42;;;12.90;99.90;;;;;;6241125;23;20028;-81
2023/11/13 14:54:20;;;;;;;4.63;1.50;;;12.90;99.90;;;;;;6223093;23;20040;-80
2023/11/13 14:57:08;;;;;;;4.80;1.70;;;12.90;99.90;;;;;;6223901;23;20443;-83